sensor_id;sensor_type;location;lat;lon;timestamp;temperature;humidity
57709;SHT35;42558;52.388;13.390;2023-11-18T00:00:36;4.49;89.14
57709;SHT35;42558;52.388;13.390;2023-11-18T00:03:04;4.49;89.07
57709;SHT35;42558;52.388;13.390;2023-11-18T00:05:33;4.50;89.00
57709;SHT35;42558;52.388;13.390;2023-11-18T00:08:01;4.52;88.91
57709;SHT35;42558;52.388;13.390;2023-11-18T00:10:29;4.54;88.85
57709;SHT35;42558;52.388;13.390;2023-11-18T00:12:58;4.56;88.76
57709;SHT35;42558;52.388;13.390;2023-11-18T00:15:26;4.56;88.70
57709;SHT35;42558;52.388;13.390;2023-11-18T00:17:55;4.55;88.69
57709;SHT35;42558;52.388;13.390;2023-11-18T00:20:23;4.55;88.69
57709;SHT35;42558;52.388;13.390;2023-11-18T00:22:52;4.55;88.70
57709;SHT35;42558;52.388;13.390;2023-11-18T00:25:20;4.54;88.70
57709;SHT35;42558;52.388;13.390;2023-11-18T00:27:48;4.55;88.71
57709;SHT35;42558;52.388;13.390;2023-11-18T00:30:17;4.56;88.77
57709;SHT35;42558;52.388;13.390;2023-11-18T00:32:45;4.56;88.76
57709;SHT35;42558;52.388;13.390;2023-11-18T00:35:14;4.55;88.77
57709;SHT35;42558;52.388;13.390;2023-11-18T00:37:42;4.55;88.69
57709;SHT35;42558;52.388;13.390;2023-11-18T00:40:11;4.56;88.61
57709;SHT35;42558;52.388;13.390;2023-11-18T00:42:39;4.56;88.56
57709;SHT35;42558;52.388;13.390;2023-11-18T00:45:08;4.56;88.54
57709;SHT35;42558;52.388;13.390;2023-11-18T00:47:36;4.54;88.52
57709;SHT35;42558;52.388;13.390;2023-11-18T00:50:04;4.55;88.55
57709;SHT35;42558;52.388;13.390;2023-11-18T00:52:36;4.56;88.59
57709;SHT35;42558;52.388;13.390;2023-11-18T00:55:11;4.54;88.59
57709;SHT35;42558;52.388;13.390;2023-11-18T00:57:40;4.55;88.56
57709;SHT35;42558;52.388;13.390;2023-11-18T01:00:13;4.56;88.49
57709;SHT35;42558;52.388;13.390;2023-11-18T01:03:04;4.56;88.34
57709;SHT35;42558;52.388;13.390;2023-11-18T01:05:34;4.56;88.29
57709;SHT35;42558;52.388;13.390;2023-11-18T01:08:04;4.57;88.28
57709;SHT35;42558;52.388;13.390;2023-11-18T01:10:34;4.56;88.22
57709;SHT35;42558;52.388;13.390;2023-11-18T01:13:04;4.56;88.27
57709;SHT35;42558;52.388;13.390;2023-11-18T01:15:35;4.56;88.36
57709;SHT35;42558;52.388;13.390;2023-11-18T01:18:05;4.55;88.40
57709;SHT35;42558;52.388;13.390;2023-11-18T01:20:36;4.56;88.40
57709;SHT35;42558;52.388;13.390;2023-11-18T01:23:06;4.55;88.41
57709;SHT35;42558;52.388;13.390;2023-11-18T01:25:36;4.57;88.47
57709;SHT35;42558;52.388;13.390;2023-11-18T01:28:05;4.56;88.48
57709;SHT35;42558;52.388;13.390;2023-11-18T01:30:33;4.57;88.50
57709;SHT35;42558;52.388;13.390;2023-11-18T01:33:02;4.56;88.50
57709;SHT35;42558;52.388;13.390;2023-11-18T01:35:33;4.56;88.50
57709;SHT35;42558;52.388;13.390;2023-11-18T01:38:03;4.55;88.59
57709;SHT35;42558;52.388;13.390;2023-11-18T01:40:34;4.55;88.58
57709;SHT35;42558;52.388;13.390;2023-11-18T01:43:04;4.58;88.55
57709;SHT35;42558;52.388;13.390;2023-11-18T01:45:40;4.58;88.52
57709;SHT35;42558;52.388;13.390;2023-11-18T01:48:11;4.59;88.57
57709;SHT35;42558;52.388;13.390;2023-11-18T01:50:43;4.59;88.56
57709;SHT35;42558;52.388;13.390;2023-11-18T01:53:14;4.60;88.54
57709;SHT35;42558;52.388;13.390;2023-11-18T01:55:44;4.60;88.55
57709;SHT35;42558;52.388;13.390;2023-11-18T01:58:16;4.61;88.50
57709;SHT35;42558;52.388;13.390;2023-11-18T02:00:49;4.61;88.50
57709;SHT35;42558;52.388;13.390;2023-11-18T02:03:21;4.60;88.43
57709;SHT35;42558;52.388;13.390;2023-11-18T02:05:51;4.61;88.50
57709;SHT35;42558;52.388;13.390;2023-11-18T02:08:21;4.60;88.49
57709;SHT35;42558;52.388;13.390;2023-11-18T02:10:56;4.60;88.50
57709;SHT35;42558;52.388;13.390;2023-11-18T02:13:41;4.63;88.50
57709;SHT35;42558;52.388;13.390;2023-11-18T02:16:17;4.62;88.50
57709;SHT35;42558;52.388;13.390;2023-11-18T02:18:48;4.61;88.53
57709;SHT35;42558;52.388;13.390;2023-11-18T02:21:20;4.61;88.57
57709;SHT35;42558;52.388;13.390;2023-11-18T02:23:52;4.62;88.60
57709;SHT35;42558;52.388;13.390;2023-11-18T02:26:23;4.62;88.58
57709;SHT35;42558;52.388;13.390;2023-11-18T02:28:53;4.62;88.59
57709;SHT35;42558;52.388;13.390;2023-11-18T02:31:26;4.61;88.55
57709;SHT35;42558;52.388;13.390;2023-11-18T02:34:14;4.59;88.59
57709;SHT35;42558;52.388;13.390;2023-11-18T02:36:52;4.58;88.60
57709;SHT35;42558;52.388;13.390;2023-11-18T02:39:32;4.58;88.60
57709;SHT35;42558;52.388;13.390;2023-11-18T02:42:13;4.57;88.59
57709;SHT35;42558;52.388;13.390;2023-11-18T02:44:41;4.57;88.58
57709;SHT35;42558;52.388;13.390;2023-11-18T02:47:13;4.57;88.55
57709;SHT35;42558;52.388;13.390;2023-11-18T02:49:45;4.58;88.53
57709;SHT35;42558;52.388;13.390;2023-11-18T02:52:22;4.58;88.52
57709;SHT35;42558;52.388;13.390;2023-11-18T02:54:52;4.59;88.50
57709;SHT35;42558;52.388;13.390;2023-11-18T02:57:22;4.60;88.50
57709;SHT35;42558;52.388;13.390;2023-11-18T02:59:52;4.61;88.50
57709;SHT35;42558;52.388;13.390;2023-11-18T03:02:22;4.63;88.51
57709;SHT35;42558;52.388;13.390;2023-11-18T03:04:52;4.62;88.60
57709;SHT35;42558;52.388;13.390;2023-11-18T03:07:22;4.63;88.58
57709;SHT35;42558;52.388;13.390;2023-11-18T03:09:52;4.63;88.52
57709;SHT35;42558;52.388;13.390;2023-11-18T03:12:26;4.61;88.46
57709;SHT35;42558;52.388;13.390;2023-11-18T03:14:57;4.58;88.42
57709;SHT35;42558;52.388;13.390;2023-11-18T03:17:27;4.56;88.46
57709;SHT35;42558;52.388;13.390;2023-11-18T03:19:58;4.56;88.44
57709;SHT35;42558;52.388;13.390;2023-11-18T03:22:27;4.57;88.47
57709;SHT35;42558;52.388;13.390;2023-11-18T03:24:57;4.58;88.42
57709;SHT35;42558;52.388;13.390;2023-11-18T03:27:28;4.57;88.44
57709;SHT35;42558;52.388;13.390;2023-11-18T03:29:58;4.59;88.45
57709;SHT35;42558;52.388;13.390;2023-11-18T03:32:28;4.59;88.45
57709;SHT35;42558;52.388;13.390;2023-11-18T03:34:58;4.58;88.50
57709;SHT35;42558;52.388;13.390;2023-11-18T03:37:28;4.57;88.50
57709;SHT35;42558;52.388;13.390;2023-11-18T03:39:58;4.55;88.60
57709;SHT35;42558;52.388;13.390;2023-11-18T03:42:25;4.54;88.61
57709;SHT35;42558;52.388;13.390;2023-11-18T03:44:55;4.55;88.63
57709;SHT35;42558;52.388;13.390;2023-11-18T03:47:25;4.55;88.62
57709;SHT35;42558;52.388;13.390;2023-11-18T03:49:53;4.57;88.65
57709;SHT35;42558;52.388;13.390;2023-11-18T03:52:23;4.57;88.60
57709;SHT35;42558;52.388;13.390;2023-11-18T03:54:53;4.56;88.60
57709;SHT35;42558;52.388;13.390;2023-11-18T03:57:26;4.54;88.60
57709;SHT35;42558;52.388;13.390;2023-11-18T03:59:56;4.52;88.60
57709;SHT35;42558;52.388;13.390;2023-11-18T04:02:26;4.52;88.60
57709;SHT35;42558;52.388;13.390;2023-11-18T04:04:56;4.50;88.62
57709;SHT35;42558;52.388;13.390;2023-11-18T04:07:26;4.50;88.66
57709;SHT35;42558;52.388;13.390;2023-11-18T04:09:58;4.47;88.61
57709;SHT35;42558;52.388;13.390;2023-11-18T04:12:29;4.46;88.71
57709;SHT35;42558;52.388;13.390;2023-11-18T04:14:58;4.45;88.70
57709;SHT35;42558;52.388;13.390;2023-11-18T04:17:26;4.45;88.70
57709;SHT35;42558;52.388;13.390;2023-11-18T04:19:57;4.43;88.70
57709;SHT35;42558;52.388;13.390;2023-11-18T04:22:26;4.43;88.77
57709;SHT35;42558;52.388;13.390;2023-11-18T04:24:54;4.43;88.77
57709;SHT35;42558;52.388;13.390;2023-11-18T04:27:23;4.44;88.76
57709;SHT35;42558;52.388;13.390;2023-11-18T04:29:51;4.45;88.79
57709;SHT35;42558;52.388;13.390;2023-11-18T04:32:19;4.43;88.80
57709;SHT35;42558;52.388;13.390;2023-11-18T04:34:48;4.43;88.84
57709;SHT35;42558;52.388;13.390;2023-11-18T04:37:20;4.44;88.88
57709;SHT35;42558;52.388;13.390;2023-11-18T04:39:50;4.43;88.92
57709;SHT35;42558;52.388;13.390;2023-11-18T04:42:20;4.40;89.06
57709;SHT35;42558;52.388;13.390;2023-11-18T04:44:50;4.39;89.11
57709;SHT35;42558;52.388;13.390;2023-11-18T04:47:20;4.40;89.12
57709;SHT35;42558;52.388;13.390;2023-11-18T04:49:48;4.39;89.20
57709;SHT35;42558;52.388;13.390;2023-11-18T04:52:17;4.40;89.20
57709;SHT35;42558;52.388;13.390;2023-11-18T04:54:45;4.38;89.15
57709;SHT35;42558;52.388;13.390;2023-11-18T04:57:17;4.38;89.20
57709;SHT35;42558;52.388;13.390;2023-11-18T04:59:45;4.39;89.20
57709;SHT35;42558;52.388;13.390;2023-11-18T05:02:14;4.39;89.20
57709;SHT35;42558;52.388;13.390;2023-11-18T05:04:42;4.39;89.20
57709;SHT35;42558;52.388;13.390;2023-11-18T05:07:12;4.36;89.23
57709;SHT35;42558;52.388;13.390;2023-11-18T05:09:42;4.39;89.30
57709;SHT35;42558;52.388;13.390;2023-11-18T05:12:12;4.39;89.21
57709;SHT35;42558;52.388;13.390;2023-11-18T05:14:42;4.40;89.21
57709;SHT35;42558;52.388;13.390;2023-11-18T05:17:11;4.40;89.20
57709;SHT35;42558;52.388;13.390;2023-11-18T05:19:41;4.35;89.20
57709;SHT35;42558;52.388;13.390;2023-11-18T05:22:12;4.33;89.29
57709;SHT35;42558;52.388;13.390;2023-11-18T05:24:43;4.34;89.30
57709;SHT35;42558;52.388;13.390;2023-11-18T05:27:14;4.32;89.31
57709;SHT35;42558;52.388;13.390;2023-11-18T05:29:44;4.30;89.35
57709;SHT35;42558;52.388;13.390;2023-11-18T05:32:23;4.27;89.40
57709;SHT35;42558;52.388;13.390;2023-11-18T05:34:56;4.25;89.43
57709;SHT35;42558;52.388;13.390;2023-11-18T05:37:27;4.26;89.44
57709;SHT35;42558;52.388;13.390;2023-11-18T05:39:58;4.25;89.40
57709;SHT35;42558;52.388;13.390;2023-11-18T05:42:37;4.25;89.41
57709;SHT35;42558;52.388;13.390;2023-11-18T05:45:10;4.28;89.42
57709;SHT35;42558;52.388;13.390;2023-11-18T05:47:45;4.24;89.36
57709;SHT35;42558;52.388;13.390;2023-11-18T05:50:13;4.21;89.30
57709;SHT35;42558;52.388;13.390;2023-11-18T05:52:42;4.21;89.30
57709;SHT35;42558;52.388;13.390;2023-11-18T05:55:10;4.22;89.30
57709;SHT35;42558;52.388;13.390;2023-11-18T05:57:39;4.22;89.28
57709;SHT35;42558;52.388;13.390;2023-11-18T06:00:07;4.22;89.24
57709;SHT35;42558;52.388;13.390;2023-11-18T06:02:39;4.20;89.19
57709;SHT35;42558;52.388;13.390;2023-11-18T06:05:10;4.20;89.20
57709;SHT35;42558;52.388;13.390;2023-11-18T06:07:42;4.20;89.21
57709;SHT35;42558;52.388;13.390;2023-11-18T06:10:16;4.20;89.20
57709;SHT35;42558;52.388;13.390;2023-11-18T06:12:48;4.19;89.15
57709;SHT35;42558;52.388;13.390;2023-11-18T06:15:18;4.21;89.19
57709;SHT35;42558;52.388;13.390;2023-11-18T06:17:48;4.21;89.12
57709;SHT35;42558;52.388;13.390;2023-11-18T06:20:18;4.22;89.08
57709;SHT35;42558;52.388;13.390;2023-11-18T06:22:49;4.23;89.08
57709;SHT35;42558;52.388;13.390;2023-11-18T06:25:19;4.22;89.01
57709;SHT35;42558;52.388;13.390;2023-11-18T06:27:50;4.25;89.06
57709;SHT35;42558;52.388;13.390;2023-11-18T06:30:19;4.25;89.00
57709;SHT35;42558;52.388;13.390;2023-11-18T06:32:49;4.26;89.00
57709;SHT35;42558;52.388;13.390;2023-11-18T06:35:19;4.26;89.00
57709;SHT35;42558;52.388;13.390;2023-11-18T06:37:51;4.25;88.95
57709;SHT35;42558;52.388;13.390;2023-11-18T06:40:22;4.23;88.99
57709;SHT35;42558;52.388;13.390;2023-11-18T06:42:56;4.27;89.01
57709;SHT35;42558;52.388;13.390;2023-11-18T06:45:31;4.28;89.00
57709;SHT35;42558;52.388;13.390;2023-11-18T06:48:01;4.28;89.00
57709;SHT35;42558;52.388;13.390;2023-11-18T06:50:32;4.28;89.06
57709;SHT35;42558;52.388;13.390;2023-11-18T06:53:04;4.26;89.07
57709;SHT35;42558;52.388;13.390;2023-11-18T06:55:36;4.27;89.10
57709;SHT35;42558;52.388;13.390;2023-11-18T06:58:06;4.29;89.11
57709;SHT35;42558;52.388;13.390;2023-11-18T07:00:36;4.31;89.20
57709;SHT35;42558;52.388;13.390;2023-11-18T07:03:06;4.30;89.16
57709;SHT35;42558;52.388;13.390;2023-11-18T07:05:34;4.30;89.20
57709;SHT35;42558;52.388;13.390;2023-11-18T07:08:03;4.33;89.20
57709;SHT35;42558;52.388;13.390;2023-11-18T07:10:31;4.32;89.16
57709;SHT35;42558;52.388;13.390;2023-11-18T07:13:00;4.34;89.23
57709;SHT35;42558;52.388;13.390;2023-11-18T07:15:28;4.41;89.30
57709;SHT35;42558;52.388;13.390;2023-11-18T07:17:56;4.40;89.12
57709;SHT35;42558;52.388;13.390;2023-11-18T07:20:25;4.41;89.04
57709;SHT35;42558;52.388;13.390;2023-11-18T07:22:53;4.42;89.02
57709;SHT35;42558;52.388;13.390;2023-11-18T07:25:22;4.45;88.93
57709;SHT35;42558;52.388;13.390;2023-11-18T07:27:50;4.51;88.77
57709;SHT35;42558;52.388;13.390;2023-11-18T07:30:18;4.52;88.64
57709;SHT35;42558;52.388;13.390;2023-11-18T07:32:47;4.44;88.33
57709;SHT35;42558;52.388;13.390;2023-11-18T07:35:15;4.41;88.47
57709;SHT35;42558;52.388;13.390;2023-11-18T07:37:47;4.40;88.41
57709;SHT35;42558;52.388;13.390;2023-11-18T07:40:17;4.40;88.55
57709;SHT35;42558;52.388;13.390;2023-11-18T07:42:52;4.44;88.65
57709;SHT35;42558;52.388;13.390;2023-11-18T07:45:20;4.49;88.61
57709;SHT35;42558;52.388;13.390;2023-11-18T07:47:47;4.57;88.58
57709;SHT35;42558;52.388;13.390;2023-11-18T07:50:16;4.69;88.42
57709;SHT35;42558;52.388;13.390;2023-11-18T07:52:47;4.88;88.45
57709;SHT35;42558;52.388;13.390;2023-11-18T07:55:20;5.05;88.09
57709;SHT35;42558;52.388;13.390;2023-11-18T07:57:52;5.04;87.31
57709;SHT35;42558;52.388;13.390;2023-11-18T08:00:22;5.03;87.21
57709;SHT35;42558;52.388;13.390;2023-11-18T08:02:53;5.05;87.18
57709;SHT35;42558;52.388;13.390;2023-11-18T08:05:24;5.13;87.17
57709;SHT35;42558;52.388;13.390;2023-11-18T08:07:54;5.18;87.14
57709;SHT35;42558;52.388;13.390;2023-11-18T08:10:23;5.04;86.67
57709;SHT35;42558;52.388;13.390;2023-11-18T08:12:54;4.93;86.78
57709;SHT35;42558;52.388;13.390;2023-11-18T08:15:24;4.92;87.06
57709;SHT35;42558;52.388;13.390;2023-11-18T08:17:56;4.86;87.07
57709;SHT35;42558;52.388;13.390;2023-11-18T08:20:26;4.87;87.26
57709;SHT35;42558;52.388;13.390;2023-11-18T08:22:56;4.86;87.29
57709;SHT35;42558;52.388;13.390;2023-11-18T08:25:26;4.88;87.20
57709;SHT35;42558;52.388;13.390;2023-11-18T08:27:56;4.92;87.33
57709;SHT35;42558;52.388;13.390;2023-11-18T08:30:26;4.93;87.31
57709;SHT35;42558;52.388;13.390;2023-11-18T08:32:56;4.89;87.23
57709;SHT35;42558;52.388;13.390;2023-11-18T08:35:27;4.91;87.20
57709;SHT35;42558;52.388;13.390;2023-11-18T08:37:58;4.92;87.14
57709;SHT35;42558;52.388;13.390;2023-11-18T08:40:30;4.92;87.08
57709;SHT35;42558;52.388;13.390;2023-11-18T08:43:00;4.88;86.88
57709;SHT35;42558;52.388;13.390;2023-11-18T08:45:30;4.84;86.88
57709;SHT35;42558;52.388;13.390;2023-11-18T08:48:03;4.88;87.10
57709;SHT35;42558;52.388;13.390;2023-11-18T08:50:37;4.93;87.00
57709;SHT35;42558;52.388;13.390;2023-11-18T08:53:08;4.93;86.90
57709;SHT35;42558;52.388;13.390;2023-11-18T08:55:37;4.98;86.96
57709;SHT35;42558;52.388;13.390;2023-11-18T08:58:11;5.06;87.03
57709;SHT35;42558;52.388;13.390;2023-11-18T09:00:50;5.09;86.80
57709;SHT35;42558;52.388;13.390;2023-11-18T09:03:25;5.11;86.69
57709;SHT35;42558;52.388;13.390;2023-11-18T09:06:04;5.16;86.61
57709;SHT35;42558;52.388;13.390;2023-11-18T09:08:48;5.19;86.32
57709;SHT35;42558;52.388;13.390;2023-11-18T09:11:23;5.18;86.01
57709;SHT35;42558;52.388;13.390;2023-11-18T09:13:58;5.21;86.00
57709;SHT35;42558;52.388;13.390;2023-11-18T09:16:31;5.25;85.92
57709;SHT35;42558;52.388;13.390;2023-11-18T09:19:02;5.28;85.84
57709;SHT35;42558;52.388;13.390;2023-11-18T09:21:35;5.27;85.74
57709;SHT35;42558;52.388;13.390;2023-11-18T09:24:06;5.27;85.72
57709;SHT35;42558;52.388;13.390;2023-11-18T09:26:41;5.26;85.41
57709;SHT35;42558;52.388;13.390;2023-11-18T09:29:13;5.29;85.46
57709;SHT35;42558;52.388;13.390;2023-11-18T09:31:47;5.23;84.97
57709;SHT35;42558;52.388;13.390;2023-11-18T09:34:18;5.22;85.16
57709;SHT35;42558;52.388;13.390;2023-11-18T09:36:56;5.32;85.47
57709;SHT35;42558;52.388;13.390;2023-11-18T09:39:26;5.40;85.43
57709;SHT35;42558;52.388;13.390;2023-11-18T09:41:58;5.36;84.99
57709;SHT35;42558;52.388;13.390;2023-11-18T09:44:32;5.37;84.86
57709;SHT35;42558;52.388;13.390;2023-11-18T09:47:02;5.22;84.51
57709;SHT35;42558;52.388;13.390;2023-11-18T09:49:44;5.32;84.90
57709;SHT35;42558;52.388;13.390;2023-11-18T09:52:19;5.43;85.07
57709;SHT35;42558;52.388;13.390;2023-11-18T09:57:38;5.48;84.61
57709;SHT35;42558;52.388;13.390;2023-11-18T10:00:15;5.42;84.14
57709;SHT35;42558;52.388;13.390;2023-11-18T10:02:56;5.51;84.12
57709;SHT35;42558;52.388;13.390;2023-11-18T10:05:30;5.61;84.08
57709;SHT35;42558;52.388;13.390;2023-11-18T10:08:03;5.58;83.51
57709;SHT35;42558;52.388;13.390;2023-11-18T10:10:35;5.54;83.64
57709;SHT35;42558;52.388;13.390;2023-11-18T10:13:07;5.52;84.05
57709;SHT35;42558;52.388;13.390;2023-11-18T10:15:51;5.52;84.21
57709;SHT35;42558;52.388;13.390;2023-11-18T10:18:22;5.43;84.25
57709;SHT35;42558;52.388;13.390;2023-11-18T10:20:54;5.43;84.55
57709;SHT35;42558;52.388;13.390;2023-11-18T10:23:24;5.44;84.51
57709;SHT35;42558;52.388;13.390;2023-11-18T10:25:58;5.44;84.48
57709;SHT35;42558;52.388;13.390;2023-11-18T10:28:34;5.42;84.34
57709;SHT35;42558;52.388;13.390;2023-11-18T10:31:05;5.26;84.47
57709;SHT35;42558;52.388;13.390;2023-11-18T10:33:39;5.35;84.74
57709;SHT35;42558;52.388;13.390;2023-11-18T10:36:20;5.49;84.70
57709;SHT35;42558;52.388;13.390;2023-11-18T10:38:52;5.54;84.22
57709;SHT35;42558;52.388;13.390;2023-11-18T10:41:26;5.48;83.78
57709;SHT35;42558;52.388;13.390;2023-11-18T10:44:06;5.48;83.66
57709;SHT35;42558;52.388;13.390;2023-11-18T10:46:50;5.48;83.70
57709;SHT35;42558;52.388;13.390;2023-11-18T10:49:23;5.50;83.41
57709;SHT35;42558;52.388;13.390;2023-11-18T10:51:57;5.49;83.24
57709;SHT35;42558;52.388;13.390;2023-11-18T10:54:29;5.48;82.95
57709;SHT35;42558;52.388;13.390;2023-11-18T10:57:01;5.46;83.06
57709;SHT35;42558;52.388;13.390;2023-11-18T10:59:42;5.36;83.59
57709;SHT35;42558;52.388;13.390;2023-11-18T11:02:46;5.27;83.98
57709;SHT35;42558;52.388;13.390;2023-11-18T11:05:29;5.27;84.43
57709;SHT35;42558;52.388;13.390;2023-11-18T11:08:01;5.25;84.32
57709;SHT35;42558;52.388;13.390;2023-11-18T11:10:33;5.16;84.39
57709;SHT35;42558;52.388;13.390;2023-11-18T11:13:04;5.18;84.74
57709;SHT35;42558;52.388;13.390;2023-11-18T11:15:39;5.18;84.67
57709;SHT35;42558;52.388;13.390;2023-11-18T11:18:26;5.10;84.82
57709;SHT35;42558;52.388;13.390;2023-11-18T11:21:11;4.95;84.96
57709;SHT35;42558;52.388;13.390;2023-11-18T11:24:00;5.04;85.14
57709;SHT35;42558;52.388;13.390;2023-11-18T11:26:44;5.16;85.15
57709;SHT35;42558;52.388;13.390;2023-11-18T11:29:40;5.24;84.87
57709;SHT35;42558;52.388;13.390;2023-11-18T11:32:57;5.29;84.35
57709;SHT35;42558;52.388;13.390;2023-11-18T11:35:22;5.32;83.99
57709;SHT35;42558;52.388;13.390;2023-11-18T11:38:00;5.37;83.97
57709;SHT35;42558;52.388;13.390;2023-11-18T11:40:41;5.42;83.68
57709;SHT35;42558;52.388;13.390;2023-11-18T11:43:12;5.44;83.33
57709;SHT35;42558;52.388;13.390;2023-11-18T11:45:50;5.45;83.09
57709;SHT35;42558;52.388;13.390;2023-11-18T11:48:22;5.57;83.11
57709;SHT35;42558;52.388;13.390;2023-11-18T11:51:11;5.64;82.76
57709;SHT35;42558;52.388;13.390;2023-11-18T11:54:20;5.47;83.05
57709;SHT35;42558;52.388;13.390;2023-11-18T11:56:58;5.39;83.33
57709;SHT35;42558;52.388;13.390;2023-11-18T12:00:14;5.61;83.76
57709;SHT35;42558;52.388;13.390;2023-11-18T12:02:26;5.80;83.49
57709;SHT35;42558;52.388;13.390;2023-11-18T12:04:57;5.74;82.91
57709;SHT35;42558;52.388;13.390;2023-11-18T12:07:29;5.54;83.50
57709;SHT35;42558;52.388;13.390;2023-11-18T12:10:01;5.65;83.75
57709;SHT35;42558;52.388;13.390;2023-11-18T12:12:35;5.72;83.20
57709;SHT35;42558;52.388;13.390;2023-11-18T12:15:06;5.80;82.97
57709;SHT35;42558;52.388;13.390;2023-11-18T12:20:39;5.50;83.10
57709;SHT35;42558;52.388;13.390;2023-11-18T12:23:15;5.49;83.51
57709;SHT35;42558;52.388;13.390;2023-11-18T12:25:47;5.41;83.84
57709;SHT35;42558;52.388;13.390;2023-11-18T12:28:27;5.49;83.85
57709;SHT35;42558;52.388;13.390;2023-11-18T12:31:05;5.38;84.06
57709;SHT35;42558;52.388;13.390;2023-11-18T12:42:08;5.70;82.63
57709;SHT35;42558;52.388;13.390;2023-11-18T12:48:14;5.79;82.33
57709;SHT35;42558;52.388;13.390;2023-11-18T12:50:44;5.75;81.73
57709;SHT35;42558;52.388;13.390;2023-11-18T12:53:16;5.77;81.91
57709;SHT35;42558;52.388;13.390;2023-11-18T12:55:48;5.67;81.87
57709;SHT35;42558;52.388;13.390;2023-11-18T12:58:19;5.68;81.84
57709;SHT35;42558;52.388;13.390;2023-11-18T13:00:49;5.60;81.44
57709;SHT35;42558;52.388;13.390;2023-11-18T13:03:19;5.65;81.77
57709;SHT35;42558;52.388;13.390;2023-11-18T13:05:50;5.69;81.64
57709;SHT35;42558;52.388;13.390;2023-11-18T13:08:21;5.73;81.70
57709;SHT35;42558;52.388;13.390;2023-11-18T13:10:52;5.78;81.54
57709;SHT35;42558;52.388;13.390;2023-11-18T13:13:22;5.83;81.47
57709;SHT35;42558;52.388;13.390;2023-11-18T13:15:52;5.93;81.38
57709;SHT35;42558;52.388;13.390;2023-11-18T13:18:23;6.03;81.24
57709;SHT35;42558;52.388;13.390;2023-11-18T13:20:56;5.98;80.95
57709;SHT35;42558;52.388;13.390;2023-11-18T13:23:27;5.96;81.06
57709;SHT35;42558;52.388;13.390;2023-11-18T13:25:59;5.95;81.19
57709;SHT35;42558;52.388;13.390;2023-11-18T13:28:30;5.91;80.98
57709;SHT35;42558;52.388;13.390;2023-11-18T13:31:01;5.94;81.18
57709;SHT35;42558;52.388;13.390;2023-11-18T13:33:32;5.95;80.83
57709;SHT35;42558;52.388;13.390;2023-11-18T13:36:04;5.96;81.18
57709;SHT35;42558;52.388;13.390;2023-11-18T13:38:41;5.94;81.17
57709;SHT35;42558;52.388;13.390;2023-11-18T13:41:11;5.91;81.25
57709;SHT35;42558;52.388;13.390;2023-11-18T13:46:17;5.95;81.14
57709;SHT35;42558;52.388;13.390;2023-11-18T13:48:48;5.85;81.55
57709;SHT35;42558;52.388;13.390;2023-11-18T13:51:19;5.83;81.48
57709;SHT35;42558;52.388;13.390;2023-11-18T13:53:50;5.76;81.58
57709;SHT35;42558;52.388;13.390;2023-11-18T13:56:19;5.74;81.76
57709;SHT35;42558;52.388;13.390;2023-11-18T13:58:47;5.59;81.91
57709;SHT35;42558;52.388;13.390;2023-11-18T14:01:19;5.55;82.22
57709;SHT35;42558;52.388;13.390;2023-11-18T14:03:51;5.47;82.45
57709;SHT35;42558;52.388;13.390;2023-11-18T14:06:22;5.42;82.61
57709;SHT35;42558;52.388;13.390;2023-11-18T14:08:52;5.36;82.78
57709;SHT35;42558;52.388;13.390;2023-11-18T14:11:23;5.27;82.87
57709;SHT35;42558;52.388;13.390;2023-11-18T14:13:53;5.22;83.19
57709;SHT35;42558;52.388;13.390;2023-11-18T14:16:24;5.12;83.14
57709;SHT35;42558;52.388;13.390;2023-11-18T14:18:55;5.02;83.39
57709;SHT35;42558;52.388;13.390;2023-11-18T14:21:26;4.94;83.61
57709;SHT35;42558;52.388;13.390;2023-11-18T14:23:55;4.92;84.03
57709;SHT35;42558;52.388;13.390;2023-11-18T14:26:29;4.88;84.22
57709;SHT35;42558;52.388;13.390;2023-11-18T14:29:00;4.85;84.36
57709;SHT35;42558;52.388;13.390;2023-11-18T14:31:31;4.77;84.30
57709;SHT35;42558;52.388;13.390;2023-11-18T14:34:01;4.74;84.59
57709;SHT35;42558;52.388;13.390;2023-11-18T14:36:32;4.67;84.57
57709;SHT35;42558;52.388;13.390;2023-11-18T14:39:03;4.63;84.72
57709;SHT35;42558;52.388;13.390;2023-11-18T14:41:34;4.58;84.83
57709;SHT35;42558;52.388;13.390;2023-11-18T14:44:04;4.49;84.78
57709;SHT35;42558;52.388;13.390;2023-11-18T14:46:35;4.33;84.94
57709;SHT35;42558;52.388;13.390;2023-11-18T14:49:10;4.28;85.34
57709;SHT35;42558;52.388;13.390;2023-11-18T14:51:40;4.29;85.71
57709;SHT35;42558;52.388;13.390;2023-11-18T14:54:10;4.29;85.94
57709;SHT35;42558;52.388;13.390;2023-11-18T14:56:40;4.26;86.19
57709;SHT35;42558;52.388;13.390;2023-11-18T14:59:09;4.29;86.37
57709;SHT35;42558;52.388;13.390;2023-11-18T15:01:41;4.30;86.50
57709;SHT35;42558;52.388;13.390;2023-11-18T15:04:13;4.32;86.72
57709;SHT35;42558;52.388;13.390;2023-11-18T15:06:44;4.35;86.94
57709;SHT35;42558;52.388;13.390;2023-11-18T15:09:14;4.36;87.04
57709;SHT35;42558;52.388;13.390;2023-11-18T15:11:44;4.39;87.07
57709;SHT35;42558;52.388;13.390;2023-11-18T15:14:15;4.43;87.06
57709;SHT35;42558;52.388;13.390;2023-11-18T15:16:45;4.44;87.02
57709;SHT35;42558;52.388;13.390;2023-11-18T15:19:17;4.44;87.09
57709;SHT35;42558;52.388;13.390;2023-11-18T15:21:48;4.46;87.11
57709;SHT35;42558;52.388;13.390;2023-11-18T15:24:18;4.48;87.16
57709;SHT35;42558;52.388;13.390;2023-11-18T15:26:50;4.50;87.20
57709;SHT35;42558;52.388;13.390;2023-11-18T15:29:20;4.51;87.18
57709;SHT35;42558;52.388;13.390;2023-11-18T15:31:50;4.51;87.20
57709;SHT35;42558;52.388;13.390;2023-11-18T15:34:17;4.52;87.20
57709;SHT35;42558;52.388;13.390;2023-11-18T15:36:47;4.55;87.12
57709;SHT35;42558;52.388;13.390;2023-11-18T15:39:16;4.56;87.03
57709;SHT35;42558;52.388;13.390;2023-11-18T15:41:46;4.56;86.94
57709;SHT35;42558;52.388;13.390;2023-11-18T15:44:17;4.56;86.99
57709;SHT35;42558;52.388;13.390;2023-11-18T15:46:49;4.57;86.99
57709;SHT35;42558;52.388;13.390;2023-11-18T15:49:19;4.58;86.95
57709;SHT35;42558;52.388;13.390;2023-11-18T15:51:49;4.57;86.92
57709;SHT35;42558;52.388;13.390;2023-11-18T15:54:19;4.55;86.93
57709;SHT35;42558;52.388;13.390;2023-11-18T15:56:49;4.52;86.87
57709;SHT35;42558;52.388;13.390;2023-11-18T15:59:20;4.50;86.86
57709;SHT35;42558;52.388;13.390;2023-11-18T16:01:50;4.44;86.82
57709;SHT35;42558;52.388;13.390;2023-11-18T16:04:19;4.38;86.94
57709;SHT35;42558;52.388;13.390;2023-11-18T16:06:50;4.33;86.96
57709;SHT35;42558;52.388;13.390;2023-11-18T16:09:20;4.30;86.94
57709;SHT35;42558;52.388;13.390;2023-11-18T16:11:49;4.23;86.87
57709;SHT35;42558;52.388;13.390;2023-11-18T16:14:17;4.18;86.96
57709;SHT35;42558;52.388;13.390;2023-11-18T16:16:46;4.14;87.00
57709;SHT35;42558;52.388;13.390;2023-11-18T16:19:14;4.07;86.99